createdAt,value
2023-04-18T00:00:24.074Z,5.59
2023-04-18T00:02:53.946Z,6.14
2023-04-18T00:05:22.190Z,5.98
2023-04-18T00:07:50.100Z,5.62
2023-04-18T00:10:19.209Z,5.54
2023-04-18T00:12:47.237Z,5.56
2023-04-18T00:15:14.963Z,5.49
2023-04-18T00:17:43.619Z,5.52
2023-04-18T00:20:12.792Z,5.67
2023-04-18T00:22:42.566Z,5.52
2023-04-18T00:25:11.145Z,5.58
2023-04-18T00:27:40.346Z,5.45
2023-04-18T00:30:10.937Z,5.53
2023-04-18T00:32:38.771Z,5.67
2023-04-18T00:35:07.427Z,5.69
2023-04-18T00:37:35.297Z,5.57
2023-04-18T00:40:03.033Z,5.57
2023-04-18T00:42:31.061Z,5.61
2023-04-18T00:45:00.175Z,5.56
2023-04-18T00:47:27.958Z,5.52
2023-04-18T00:49:55.956Z,5.48
2023-04-18T00:52:24.328Z,5.53
2023-04-18T00:54:52.538Z,5.46
2023-04-18T00:57:20.455Z,5.46
2023-04-18T00:59:48.263Z,5.52
2023-04-18T01:02:17.480Z,5.67
2023-04-18T01:04:45.446Z,5.56
2023-04-18T01:07:13.159Z,5.55
2023-04-18T01:09:41.168Z,5.50
2023-04-18T01:12:08.989Z,5.48
2023-04-18T01:14:36.749Z,5.48
2023-04-18T01:17:04.569Z,5.40
2023-04-18T01:19:33.701Z,5.37
2023-04-18T01:22:01.411Z,5.37
2023-04-18T01:24:32.132Z,5.47
2023-04-18T01:27:01.814Z,5.53
2023-04-18T01:29:29.623Z,5.43
2023-04-18T01:31:57.776Z,5.49
2023-04-18T01:34:25.725Z,5.50
2023-04-18T01:36:53.454Z,5.50
2023-04-18T01:39:21.229Z,5.47
2023-04-18T01:41:50.446Z,5.50
2023-04-18T01:44:18.218Z,5.55
2023-04-18T01:46:47.070Z,5.56
2023-04-18T01:49:42.853Z,5.58
2023-04-18T01:52:10.570Z,5.53
2023-04-18T01:54:38.330Z,5.46
2023-04-18T01:57:07.420Z,5.62
2023-04-18T01:59:35.213Z,5.58
2023-04-18T02:02:03.381Z,5.58
2023-04-18T02:04:31.309Z,5.46
2023-04-18T02:06:59.103Z,5.56
2023-04-18T02:09:26.873Z,5.47
2023-04-18T02:11:56.236Z,5.50
2023-04-18T02:14:25.984Z,5.56
2023-04-18T02:16:53.796Z,5.47
2023-04-18T02:19:22.522Z,5.53
2023-04-18T02:21:50.277Z,5.60
2023-04-18T02:24:18.089Z,5.57
2023-04-18T02:26:45.893Z,5.63
2023-04-18T02:29:13.672Z,5.60
2023-04-18T02:31:43.119Z,5.53
2023-04-18T02:34:11.099Z,5.51
2023-04-18T02:36:38.933Z,5.48
2023-04-18T02:39:06.728Z,5.51
2023-04-18T02:41:37.572Z,5.52
2023-04-18T02:44:05.361Z,5.47
2023-04-18T02:46:37.116Z,5.43
2023-04-18T02:49:09.007Z,5.48
2023-04-18T02:51:36.788Z,5.45
2023-04-18T02:54:04.940Z,5.57
2023-04-18T02:56:45.622Z,5.53
2023-04-18T02:59:19.795Z,5.62
2023-04-18T03:02:13.771Z,5.89
2023-04-18T03:04:50.218Z,6.08
2023-04-18T03:07:18.039Z,5.77
2023-04-18T03:09:45.916Z,5.61
2023-04-18T03:12:22.411Z,5.60
2023-04-18T03:14:50.262Z,5.71
2023-04-18T03:17:19.061Z,5.73
2023-04-18T03:19:50.932Z,5.72
2023-04-18T03:22:20.841Z,5.82
2023-04-18T03:24:56.350Z,5.73
2023-04-18T03:27:37.368Z,5.60
2023-04-18T03:30:06.469Z,5.63
2023-04-18T03:32:35.269Z,5.64
2023-04-18T03:35:05.143Z,5.66
2023-04-18T03:37:33.531Z,5.69
2023-04-18T03:40:05.315Z,5.70
2023-04-18T03:42:33.090Z,5.71
2023-04-18T03:45:01.082Z,5.78
2023-04-18T03:47:30.278Z,5.76
2023-04-18T03:49:59.580Z,5.72
2023-04-18T03:52:29.902Z,5.71
2023-04-18T03:54:57.984Z,5.74
2023-04-18T03:57:31.176Z,5.76
2023-04-18T03:59:59.173Z,5.71
2023-04-18T04:02:28.953Z,5.86
2023-04-18T04:04:56.918Z,5.82
2023-04-18T04:07:24.849Z,5.75
2023-04-18T04:09:54.106Z,5.71
2023-04-18T04:12:21.860Z,5.88
2023-04-18T04:14:50.193Z,5.80
2023-04-18T04:17:18.176Z,5.72
2023-04-18T04:19:46.291Z,5.69
2023-04-18T04:22:19.083Z,5.67
2023-04-18T04:24:47.610Z,5.75
2023-04-18T04:27:20.637Z,5.87
2023-04-18T04:29:49.275Z,5.94
2023-04-18T04:32:20.373Z,5.79
2023-04-18T04:34:49.411Z,5.80
2023-04-18T04:37:18.682Z,5.87
2023-04-18T04:40:12.509Z,5.88
2023-04-18T04:43:01.897Z,5.91
2023-04-18T04:45:36.385Z,5.86
2023-04-18T04:48:04.564Z,5.87
2023-04-18T04:50:34.513Z,5.87
2023-04-18T04:53:02.266Z,5.89
2023-04-18T04:55:30.271Z,6.09
2023-04-18T04:57:58.057Z,6.14
2023-04-18T05:00:37.724Z,6.13
2023-04-18T05:03:05.872Z,6.04
2023-04-18T05:05:33.844Z,6.02
2023-04-18T05:08:01.655Z,6.08
2023-04-18T05:10:29.422Z,6.16
2023-04-18T05:12:57.204Z,6.34
2023-04-18T05:15:25.032Z,6.21
2023-04-18T05:17:54.223Z,6.22
2023-04-18T05:20:22.076Z,6.14
2023-04-18T05:22:49.866Z,6.20
2023-04-18T05:25:18.009Z,6.23
2023-04-18T05:27:46.347Z,6.22
2023-04-18T05:30:14.422Z,6.23
2023-04-18T05:32:42.376Z,6.21
2023-04-18T05:35:11.596Z,6.24
2023-04-18T05:37:39.364Z,6.38
2023-04-18T05:40:09.236Z,6.30
2023-04-18T05:42:37.015Z,6.33
2023-04-18T05:45:05.087Z,6.27
2023-04-18T05:47:33.705Z,6.24
2023-04-18T05:50:02.745Z,6.25
2023-04-18T05:52:31.876Z,6.18
2023-04-18T05:54:59.644Z,6.21
2023-04-18T05:57:27.510Z,6.15
2023-04-18T05:59:57.657Z,6.09
2023-04-18T06:02:25.736Z,6.05
2023-04-18T06:05:00.018Z,6.04
2023-04-18T06:07:31.879Z,6.00
2023-04-18T06:09:59.682Z,5.97
2023-04-18T06:12:27.443Z,5.96
2023-04-18T06:14:55.224Z,5.86
2023-04-18T06:17:23.051Z,5.90
2023-04-18T06:19:50.839Z,5.95
2023-04-18T06:22:18.992Z,5.88
2023-04-18T06:24:48.072Z,5.88
2023-04-18T06:27:30.132Z,5.84
2023-04-18T06:29:59.154Z,5.85
2023-04-18T06:32:26.989Z,5.72
2023-04-18T06:34:54.819Z,5.82
2023-04-18T06:37:22.690Z,5.85
2023-04-18T06:39:51.782Z,5.85
2023-04-18T06:42:22.036Z,5.88
2023-04-18T06:44:50.203Z,5.80
2023-04-18T06:47:17.958Z,5.62
2023-04-18T06:49:45.706Z,5.50
2023-04-18T06:52:13.444Z,5.44
2023-04-18T06:54:41.120Z,5.51
2023-04-18T06:57:10.346Z,5.47
2023-04-18T06:59:38.579Z,5.48
2023-04-18T07:02:06.360Z,5.43
2023-04-18T07:04:34.168Z,5.49
2023-04-18T07:07:03.790Z,5.45
2023-04-18T07:09:31.494Z,5.46
2023-04-18T07:11:59.340Z,5.40
2023-04-18T07:14:28.566Z,5.44
2023-04-18T07:16:57.711Z,5.42
2023-04-18T07:19:25.436Z,5.43
2023-04-18T07:21:53.979Z,5.57
2023-04-18T07:24:23.576Z,5.53
2023-04-18T07:26:53.146Z,5.69
2023-04-18T07:29:22.603Z,5.60
2023-04-18T07:31:52.038Z,5.62
2023-04-18T07:34:19.816Z,5.56
2023-04-18T07:36:47.588Z,5.50
2023-04-18T07:39:15.304Z,5.46
2023-04-18T07:41:43.393Z,5.47
2023-04-18T07:44:11.655Z,5.38
2023-04-18T07:46:39.592Z,5.38
2023-04-18T07:49:08.729Z,5.52
2023-04-18T07:51:36.492Z,5.44
2023-04-18T07:54:04.228Z,5.35
2023-04-18T07:56:32.003Z,5.39
2023-04-18T07:58:59.736Z,5.51
2023-04-18T08:01:27.704Z,5.55
2023-04-18T08:03:57.773Z,5.58
2023-04-18T08:06:27.267Z,5.54
2023-04-18T08:08:55.006Z,5.50
2023-04-18T08:11:22.799Z,5.58
2023-04-18T08:13:50.563Z,5.67
2023-04-18T08:16:18.360Z,5.70
2023-04-18T08:18:46.173Z,5.75
2023-04-18T08:21:14.004Z,5.62
2023-04-18T08:23:43.073Z,5.78
2023-04-18T08:26:10.834Z,5.82
2023-04-18T08:28:38.608Z,5.87
2023-04-18T08:31:06.556Z,5.75
2023-04-18T08:33:34.299Z,5.54
2023-04-18T08:36:02.044Z,5.50
2023-04-18T08:38:29.787Z,5.36
2023-04-18T08:40:58.970Z,5.48
2023-04-18T08:43:26.886Z,5.48
2023-04-18T08:45:58.667Z,5.48
2023-04-18T08:48:27.869Z,5.58
2023-04-18T08:50:58.048Z,5.70
2023-04-18T08:53:26.554Z,5.58
2023-04-18T08:55:56.299Z,5.66
2023-04-18T08:58:27.183Z,5.77
2023-04-18T09:00:55.347Z,5.78
2023-04-18T09:03:37.512Z,5.82
2023-04-18T09:06:13.728Z,5.86
2023-04-18T09:08:43.315Z,5.94
2023-04-18T09:11:26.733Z,6.00
2023-04-18T09:13:56.396Z,6.00
2023-04-18T09:16:24.960Z,5.91
2023-04-18T09:19:12.995Z,5.92
2023-04-18T09:21:42.852Z,5.96
2023-04-18T09:24:20.725Z,6.02
2023-04-18T09:26:50.814Z,5.97
2023-04-18T09:29:22.456Z,5.89
2023-04-18T09:31:59.916Z,5.97
2023-04-18T09:34:27.856Z,6.34
2023-04-18T09:37:08.829Z,6.23
2023-04-18T09:39:37.934Z,6.18
2023-04-18T09:42:05.707Z,5.99
2023-04-18T09:44:34.740Z,6.01
2023-04-18T09:47:02.450Z,6.06
2023-04-18T09:49:30.252Z,6.04
2023-04-18T09:51:58.027Z,6.12
2023-04-18T09:54:26.039Z,6.04
2023-04-18T09:56:55.441Z,6.10
2023-04-18T09:59:35.389Z,5.89
2023-04-18T10:02:03.736Z,6.05
2023-04-18T10:04:31.938Z,6.03
2023-04-18T10:06:59.756Z,6.12
2023-04-18T10:09:27.915Z,6.27
2023-04-18T10:11:57.013Z,6.12
2023-04-18T10:14:25.270Z,6.19
2023-04-18T10:16:55.279Z,6.08
2023-04-18T10:19:26.776Z,6.05
2023-04-18T10:21:55.474Z,6.22
2023-04-18T10:24:48.992Z,6.02
2023-04-18T10:27:17.242Z,5.72
2023-04-18T10:29:48.309Z,5.99
2023-04-18T10:32:17.595Z,6.02
2023-04-18T10:34:57.632Z,5.85
2023-04-18T10:37:31.670Z,5.86
2023-04-18T10:40:02.144Z,5.95
2023-04-18T10:43:02.502Z,5.80
2023-04-18T10:45:36.360Z,5.89
2023-04-18T10:48:24.891Z,5.81
2023-04-18T10:51:18.317Z,5.96
2023-04-18T10:53:49.368Z,5.88
2023-04-18T10:56:17.855Z,5.98
2023-04-18T10:58:52.962Z,5.81
2023-04-18T11:01:27.077Z,5.73
2023-04-18T11:04:00.154Z,5.81
2023-04-18T11:06:28.629Z,5.81
2023-04-18T11:09:10.266Z,5.78
2023-04-18T11:11:41.627Z,5.85
2023-04-18T11:14:09.696Z,5.92
2023-04-18T11:16:37.757Z,5.66
2023-04-18T11:19:21.260Z,5.91
2023-04-18T11:21:49.174Z,5.95
2023-04-18T11:24:23.201Z,5.78
2023-04-18T11:26:55.796Z,5.77
2023-04-18T11:29:24.100Z,5.85
2023-04-18T11:31:53.045Z,5.98
2023-04-18T11:34:24.906Z,6.09
2023-04-18T11:36:55.323Z,5.97
2023-04-18T11:39:23.415Z,5.84
2023-04-18T11:41:51.321Z,5.75
2023-04-18T11:44:19.518Z,5.82
2023-04-18T11:46:52.479Z,5.89
2023-04-18T11:49:28.639Z,5.86
2023-04-18T11:51:56.631Z,5.86
2023-04-18T11:54:45.570Z,5.94
2023-04-18T11:57:23.881Z,6.09
2023-04-18T11:59:52.615Z,5.88
2023-04-18T12:02:20.839Z,5.97
2023-04-18T12:04:54.507Z,5.99
2023-04-18T12:07:43.035Z,5.98
2023-04-18T12:10:26.980Z,6.04
2023-04-18T12:12:55.703Z,5.94
2023-04-18T12:15:27.174Z,6.01
2023-04-18T12:17:58.789Z,6.07
2023-04-18T12:20:34.826Z,5.89
2023-04-18T12:23:03.498Z,5.87
2023-04-18T12:25:32.101Z,6.04
2023-04-18T12:28:00.470Z,6.05
2023-04-18T12:30:31.209Z,6.08
2023-04-18T12:33:04.878Z,6.12
2023-04-18T12:35:34.106Z,5.93
2023-04-18T12:38:06.021Z,5.91
2023-04-18T12:40:33.835Z,6.04
2023-04-18T12:43:03.816Z,6.08
2023-04-18T12:45:36.653Z,6.16
2023-04-18T12:48:07.292Z,6.22
2023-04-18T12:50:38.268Z,6.34
2023-04-18T12:53:08.856Z,6.36
2023-04-18T12:55:37.310Z,6.54
2023-04-18T12:58:05.043Z,6.45
2023-04-18T13:00:33.293Z,6.59
2023-04-18T13:03:01.523Z,6.45
2023-04-18T13:05:33.172Z,6.58
2023-04-18T13:08:16.077Z,6.52
2023-04-18T13:10:45.567Z,6.43
2023-04-18T13:13:13.616Z,6.58
2023-04-18T13:15:41.470Z,6.49
2023-04-18T13:18:09.446Z,6.58
2023-04-18T13:20:38.915Z,6.75
2023-04-18T13:23:11.420Z,6.72
2023-04-18T13:25:39.623Z,6.67
2023-04-18T13:28:10.418Z,6.73
2023-04-18T13:30:38.256Z,6.71
2023-04-18T13:33:06.618Z,6.65
2023-04-18T13:35:34.420Z,6.80
2023-04-18T13:38:02.297Z,6.70
2023-04-18T13:40:33.444Z,6.74
2023-04-18T13:43:03.587Z,6.66
2023-04-18T13:45:34.088Z,6.72
2023-04-18T13:48:02.088Z,6.73
2023-04-18T13:50:29.982Z,6.67
2023-04-18T13:52:57.769Z,6.81
2023-04-18T13:55:26.265Z,6.85
2023-04-18T13:57:55.391Z,6.76
2023-04-18T14:00:23.219Z,6.81
2023-04-18T14:02:53.574Z,6.74
2023-04-18T14:05:21.944Z,6.89
2023-04-18T14:07:49.785Z,6.83
2023-04-18T14:10:17.662Z,6.77
2023-04-18T14:12:45.375Z,6.79
2023-04-18T14:15:14.829Z,6.86
2023-04-18T14:17:44.848Z,6.77
2023-04-18T14:20:15.558Z,6.87
2023-04-18T14:22:43.285Z,6.84
2023-04-18T14:25:11.202Z,6.88
2023-04-18T14:27:39.141Z,6.80
2023-04-18T14:30:08.769Z,6.91
2023-04-18T14:32:38.178Z,7.01
2023-04-18T14:35:07.150Z,6.72
2023-04-18T14:37:35.433Z,6.74
2023-04-18T14:40:03.174Z,6.83
2023-04-18T14:42:31.130Z,6.81
2023-04-18T14:44:59.105Z,6.92
2023-04-18T14:47:31.835Z,7.04
2023-04-18T14:50:01.124Z,7.00
2023-04-18T14:52:28.820Z,7.01
2023-04-18T14:54:56.528Z,6.94
2023-04-18T14:57:24.374Z,7.04
2023-04-18T14:59:54.376Z,6.96
2023-04-18T15:02:22.350Z,6.84
2023-04-18T15:04:50.952Z,6.81
2023-04-18T15:07:27.513Z,6.83
2023-04-18T15:09:55.226Z,6.80
2023-04-18T15:12:22.956Z,6.82
2023-04-18T15:14:50.714Z,6.85
2023-04-18T15:17:18.436Z,6.76
2023-04-18T15:19:46.109Z,6.81
2023-04-18T15:22:13.829Z,6.85
2023-04-18T15:24:42.865Z,6.82
2023-04-18T15:27:10.924Z,6.90
2023-04-18T15:29:38.963Z,6.86
2023-04-18T15:32:07.214Z,6.87
2023-04-18T15:34:34.986Z,6.83
2023-04-18T15:37:02.687Z,6.94
2023-04-18T15:39:30.386Z,6.87
2023-04-18T15:41:59.455Z,6.86
2023-04-18T15:44:27.548Z,6.87
2023-04-18T15:46:55.550Z,6.92
2023-04-18T15:49:23.256Z,6.94
2023-04-18T15:51:51.017Z,6.88
2023-04-18T15:54:18.725Z,6.94
2023-04-18T15:56:46.436Z,6.92
2023-04-18T15:59:15.475Z,6.99
2023-04-18T16:01:45.690Z,7.04
2023-04-18T16:04:14.273Z,6.94
2023-04-18T16:06:42.527Z,7.02
2023-04-18T16:09:10.345Z,7.01
2023-04-18T16:11:38.023Z,7.02
2023-04-18T16:14:05.765Z,6.97
2023-04-18T16:16:35.024Z,7.04
2023-04-18T16:19:04.078Z,7.02
2023-04-18T16:21:32.550Z,7.06
2023-04-18T16:24:00.441Z,7.05
2023-04-18T16:26:28.960Z,7.21
2023-04-18T16:28:57.035Z,7.16
2023-04-18T16:31:25.013Z,7.03
2023-04-18T16:33:54.121Z,7.04
2023-04-18T16:36:21.946Z,7.04
2023-04-18T16:38:49.738Z,7.06
2023-04-18T16:41:17.514Z,7.08
2023-04-18T16:43:45.243Z,7.04
2023-04-18T16:46:13.909Z,7.12
2023-04-18T16:48:41.751Z,7.29
2023-04-18T16:51:13.180Z,7.43
2023-04-18T16:53:45.729Z,7.16
2023-04-18T16:56:13.552Z,7.15
2023-04-18T16:58:41.515Z,7.24
2023-04-18T17:01:15.441Z,7.36
2023-04-18T17:03:43.217Z,7.49
2023-04-18T17:06:12.382Z,7.36
2023-04-18T17:08:40.101Z,7.58
2023-04-18T17:11:08.173Z,7.32
2023-04-18T17:13:36.300Z,7.31
2023-04-18T17:16:04.313Z,7.24
2023-04-18T17:18:32.053Z,7.47
2023-04-18T17:20:59.969Z,7.69
2023-04-18T17:23:30.331Z,7.42
2023-04-18T17:25:59.303Z,7.22
2023-04-18T17:28:29.274Z,7.09
2023-04-18T17:30:57.518Z,7.08
2023-04-18T17:33:25.397Z,7.06
2023-04-18T17:35:55.366Z,7.15
2023-04-18T17:38:25.586Z,7.12
2023-04-18T17:41:01.163Z,7.11
2023-04-18T17:43:28.999Z,7.16
2023-04-18T17:45:56.914Z,7.10
2023-04-18T17:48:24.675Z,7.08
2023-04-18T17:50:54.912Z,7.12
2023-04-18T17:53:22.739Z,7.09
2023-04-18T17:55:52.172Z,7.09
2023-04-18T17:58:22.397Z,7.15
2023-04-18T18:00:52.248Z,7.20
2023-04-18T18:03:20.174Z,7.18
2023-04-18T18:05:48.854Z,7.10
2023-04-18T18:08:17.252Z,7.24
2023-04-18T18:10:47.137Z,7.32
2023-04-18T18:13:15.246Z,7.27
2023-04-18T18:15:47.233Z,7.38
2023-04-18T18:18:29.754Z,7.35
2023-04-18T18:20:58.230Z,7.29
2023-04-18T18:23:26.119Z,7.53
2023-04-18T18:25:53.911Z,7.53
2023-04-18T18:28:21.661Z,7.83
2023-04-18T18:30:50.751Z,7.49
2023-04-18T18:33:19.161Z,7.57
2023-04-18T18:35:47.275Z,7.59
2023-04-18T18:38:15.080Z,7.71
2023-04-18T18:40:43.259Z,7.63
2023-04-18T18:43:11.041Z,7.75
2023-04-18T18:45:38.970Z,7.68
2023-04-18T18:48:08.764Z,7.81
2023-04-18T18:50:36.524Z,7.79
2023-04-18T18:53:06.192Z,7.85
2023-04-18T18:55:34.055Z,8.03
2023-04-18T18:58:02.578Z,7.76
2023-04-18T19:00:32.752Z,7.60
2023-04-18T19:03:03.521Z,7.61
2023-04-18T19:05:32.745Z,7.37
2023-04-18T19:08:03.982Z,7.31
2023-04-18T19:10:34.166Z,7.34
2023-04-18T19:13:01.986Z,7.41
2023-04-18T19:15:29.824Z,7.36
2023-04-18T19:17:57.650Z,7.38
2023-04-18T19:20:27.530Z,7.28
2023-04-18T19:22:58.257Z,7.38
2023-04-18T19:25:28.658Z,7.44
2023-04-18T19:27:56.437Z,7.57
2023-04-18T19:30:25.049Z,7.56
2023-04-18T19:32:54.164Z,7.47
2023-04-18T19:35:22.048Z,7.50
2023-04-18T19:37:49.834Z,7.67
2023-04-18T19:40:19.050Z,7.52
2023-04-18T19:42:47.034Z,7.54
2023-04-18T19:45:15.472Z,7.58
2023-04-18T19:47:48.031Z,7.61
2023-04-18T19:50:15.848Z,7.65
2023-04-18T19:52:43.575Z,7.60
2023-04-18T19:55:11.824Z,7.59
2023-04-18T19:57:43.340Z,7.49
2023-04-18T20:00:14.745Z,7.49
2023-04-18T20:02:44.300Z,7.59
2023-04-18T20:05:13.162Z,7.55
2023-04-18T20:07:41.631Z,7.75
2023-04-18T20:10:12.835Z,7.53
2023-04-18T20:12:41.984Z,7.60
2023-04-18T20:15:10.749Z,7.53
2023-04-18T20:17:38.714Z,7.53
2023-04-18T20:20:09.300Z,7.64
2023-04-18T20:22:38.657Z,7.66
2023-04-18T20:25:07.389Z,7.64
2023-04-18T20:27:35.404Z,7.68
2023-04-18T20:30:08.551Z,7.78
2023-04-18T20:32:37.048Z,7.61
2023-04-18T20:35:05.370Z,7.62
2023-04-18T20:37:37.117Z,7.61
2023-04-18T20:40:08.015Z,7.66
2023-04-18T20:42:36.687Z,7.99
2023-04-18T20:45:11.240Z,7.86
2023-04-18T20:47:41.258Z,7.93
2023-04-18T20:50:09.721Z,7.97
2023-04-18T20:52:42.661Z,7.91
2023-04-18T20:55:10.946Z,7.80
2023-04-18T20:57:38.823Z,7.78
2023-04-18T21:00:10.555Z,7.88
2023-04-18T21:02:38.458Z,7.81
2023-04-18T21:05:07.111Z,7.67
2023-04-18T21:07:35.531Z,7.93
2023-04-18T21:10:03.420Z,7.90
2023-04-18T21:12:31.270Z,8.02
2023-04-18T21:14:59.122Z,8.19
2023-04-18T21:17:28.427Z,8.26
2023-04-18T21:19:56.337Z,8.13
2023-04-18T21:22:24.185Z,8.03
2023-04-18T21:24:52.389Z,8.28
2023-04-18T21:27:20.436Z,8.32
2023-04-18T21:29:48.206Z,8.51
2023-04-18T21:32:16.326Z,8.63
2023-04-18T21:34:45.688Z,8.83
2023-04-18T21:37:13.643Z,8.62
2023-04-18T21:39:42.521Z,8.60
2023-04-18T21:42:11.343Z,8.88
2023-04-18T21:44:39.493Z,8.71
2023-04-18T21:47:07.452Z,8.28
2023-04-18T21:49:35.716Z,8.35
2023-04-18T21:52:05.120Z,8.64
2023-04-18T21:54:33.038Z,8.45
2023-04-18T21:57:02.795Z,8.33
2023-04-18T21:59:31.189Z,8.34
2023-04-18T22:01:59.326Z,8.61
2023-04-18T22:04:27.864Z,8.70
2023-04-18T22:06:56.812Z,8.79
2023-04-18T22:09:26.167Z,8.78
2023-04-18T22:11:56.907Z,8.72
2023-04-18T22:14:26.077Z,8.96
2023-04-18T22:16:54.093Z,8.90
2023-04-18T22:19:22.005Z,8.71
2023-04-18T22:21:49.979Z,8.55
2023-04-18T22:24:18.436Z,8.12
2023-04-18T22:26:47.569Z,8.40
2023-04-18T22:29:15.429Z,8.49
2023-04-18T22:31:43.443Z,8.48
2023-04-18T22:34:11.445Z,8.89
2023-04-18T22:36:39.257Z,8.98
2023-04-18T22:39:07.485Z,9.26
2023-04-18T22:41:35.301Z,9.20
2023-04-18T22:44:04.801Z,8.79
2023-04-18T22:46:32.928Z,8.31
2023-04-18T22:49:00.904Z,8.66
2023-04-18T22:51:29.043Z,8.60
2023-04-18T22:53:57.242Z,9.07
2023-04-18T22:56:25.078Z,8.62
2023-04-18T22:58:53.078Z,8.29
2023-04-18T23:01:22.310Z,8.49
2023-04-18T23:03:50.526Z,8.16
2023-04-18T23:06:18.586Z,8.14
2023-04-18T23:08:46.662Z,8.12
2023-04-18T23:11:14.558Z,8.16
2023-04-18T23:13:42.533Z,8.01
2023-04-18T23:16:10.580Z,8.01
2023-04-18T23:18:40.118Z,8.20
2023-04-18T23:21:08.299Z,7.92
2023-04-18T23:23:36.299Z,8.05
2023-04-18T23:26:04.339Z,8.42
2023-04-18T23:28:32.232Z,8.16
2023-04-18T23:31:00.322Z,8.09
2023-04-18T23:33:28.372Z,8.13
2023-04-18T23:35:57.619Z,7.81
2023-04-18T23:38:25.536Z,7.74
2023-04-18T23:40:53.349Z,7.79
2023-04-18T23:43:21.535Z,7.82
2023-04-18T23:45:49.457Z,7.79
2023-04-18T23:48:17.484Z,7.82
2023-04-18T23:50:46.348Z,7.84
2023-04-18T23:53:16.522Z,7.65
2023-04-18T23:55:44.389Z,7.68
2023-04-18T23:58:12.262Z,7.71
